Time;durP1;ratioP1;P1;durP2;ratioP2;P2;SDS_P1;SDS_P2;PMS_P1;PMS_P2;Temp;Humidity;BMP_temperature;BMP_pressure;BME280_temperature;BME280_humidity;BME280_pressure;Samples;Min_cycle;Max_cycle;Signal;HPM_P1;HPM_P2
2023/06/14 00:01:39;;;;;;;6.85;6.00;;;;;;;21.76;37.95;99438.13;4890217;28;20134;-91
2023/06/14 00:04:08;;;;;;;9.60;5.63;;;;;;;21.79;37.75;99456.59;4894106;28;20082;-93
2023/06/14 00:06:35;;;;;;;10.52;5.53;;;;;;;21.78;37.65;99452.22;4900727;28;20048;-93
2023/06/14 00:09:02;;;;;;;10.48;6.15;;;;;;;21.76;37.53;99448.91;4895050;28;20048;-92
2023/06/14 00:11:30;;;;;;;8.75;5.18;;;;;;;21.76;37.32;99451.63;4903366;28;20054;-93
2023/06/14 00:13:57;;;;;;;8.07;5.47;;;;;;;21.75;37.00;99445.38;4893435;28;20132;-93
2023/06/14 00:16:24;;;;;;;7.38;5.63;;;;;;;21.79;36.61;99443.91;4892227;28;20488;-92
2023/06/14 00:18:54;;;;;;;10.52;5.57;;;;;;;21.79;36.60;99446.59;4892987;28;20098;-92
2023/06/14 00:21:21;;;;;;;10.07;5.80;;;;;;;21.82;36.41;99446.16;4904982;28;20118;-92
2023/06/14 00:23:48;;;;;;;9.13;5.18;;;;;;;21.81;36.92;99439.09;4893571;28;20040;-94
2023/06/14 00:26:16;;;;;;;6.97;5.40;;;;;;;21.76;37.63;99440.81;4888831;28;20056;-94
2023/06/14 00:28:43;;;;;;;8.13;5.38;;;;;;;21.75;37.73;99437.25;4894858;28;20110;-91
2023/06/14 00:31:10;;;;;;;7.93;5.53;;;;;;;21.68;37.72;99436.50;4905040;28;20052;-92
2023/06/14 00:33:37;;;;;;;8.00;5.18;;;;;;;21.70;37.56;99433.56;4890363;28;20103;-91
2023/06/14 00:36:04;;;;;;;7.95;5.38;;;;;;;21.67;37.77;99437.53;4899113;28;20131;-91
2023/06/14 00:38:31;;;;;;;7.38;5.47;;;;;;;21.65;38.01;99431.50;4899844;28;20048;-91
2023/06/14 00:40:58;;;;;;;10.07;5.80;;;;;;;21.64;38.07;99440.66;4892111;28;20043;-92
2023/06/14 00:43:25;;;;;;;8.32;5.65;;;;;;;21.56;38.31;99433.66;4883784;28;20056;-93
2023/06/14 00:45:53;;;;;;;8.90;5.38;;;;;;;21.53;38.14;99435.97;4891877;28;20063;-91
2023/06/14 00:48:20;;;;;;;7.80;6.07;;;;;;;21.55;38.27;99439.25;4907228;28;20051;-91
2023/06/14 00:50:48;;;;;;;7.75;5.45;;;;;;;21.51;38.32;99444.28;4886759;28;20066;-93
2023/06/14 00:53:17;;;;;;;11.70;5.60;;;;;;;21.52;38.41;99445.91;4889496;28;20496;-91
2023/06/14 00:55:44;;;;;;;11.98;5.22;;;;;;;21.50;38.84;99439.94;4884994;28;20059;-89
2023/06/14 00:58:11;;;;;;;8.05;5.72;;;;;;;21.45;38.90;99445.16;4909169;28;20526;-91
2023/06/14 01:00:38;;;;;;;10.23;5.53;;;;;;;21.42;39.26;99449.13;4908114;28;20090;-91
2023/06/14 01:03:05;;;;;;;9.48;5.40;;;;;;;21.43;38.91;99442.66;4890996;28;20055;-91
2023/06/14 01:05:32;;;;;;;6.70;5.90;;;;;;;21.45;38.23;99443.28;4900374;28;20135;-90
2023/06/14 01:08:21;;;;;;;9.70;5.93;;;;;;;21.36;39.31;99447.22;4897308;28;20044;-91
2023/06/14 01:11:01;;;;;;;9.73;5.47;;;;;;;21.31;38.40;99443.53;4902349;28;20487;-91
2023/06/14 01:13:31;;;;;;;8.48;5.75;;;;;;;21.33;38.54;99442.25;4898174;28;20079;-91
2023/06/14 01:15:58;;;;;;;9.07;5.65;;;;;;;21.25;39.15;99448.75;4900214;28;20051;-92
2023/06/14 01:18:29;;;;;;;7.10;5.85;;;;;;;21.29;39.38;99448.31;4903679;28;20107;-90
2023/06/14 01:20:56;;;;;;;8.63;5.40;;;;;;;21.21;39.70;99442.09;4903891;28;20132;-91
2023/06/14 01:23:25;;;;;;;8.23;6.00;;;;;;;21.19;39.82;99449.63;4904260;28;20462;-91
2023/06/14 01:25:55;;;;;;;7.85;5.82;;;;;;;21.17;39.59;99440.06;4890400;28;20075;-90
2023/06/14 01:28:22;;;;;;;7.40;5.80;;;;;;;21.10;40.05;99442.78;4889057;28;20051;-92
2023/06/14 01:30:53;;;;;;;8.73;5.55;;;;;;;21.06;40.35;99446.94;4890220;28;20056;-91
2023/06/14 01:33:22;;;;;;;10.98;6.18;;;;;;;21.06;40.26;99451.53;4918327;28;20514;-91
2023/06/14 01:35:50;;;;;;;10.55;5.72;;;;;;;20.99;40.64;99446.16;4900092;28;20044;-91
2023/06/14 01:38:19;;;;;;;9.02;5.72;;;;;;;20.98;39.93;99441.78;4908960;28;20066;-91
2023/06/14 01:40:47;;;;;;;6.10;5.28;;;;;;;21.06;39.85;99446.94;4881452;28;20363;-93
2023/06/14 01:43:15;;;;;;;10.50;5.28;;;;;;;21.12;39.29;99442.59;4893529;28;20235;-92
2023/06/14 01:45:42;;;;;;;8.52;6.10;;;;;;;21.22;38.09;99441.06;4884969;28;20055;-91
2023/06/14 01:48:09;;;;;;;9.15;6.15;;;;;;;21.22;38.15;99443.78;4886666;28;20060;-93
2023/06/14 01:50:36;;;;;;;9.73;6.78;;;;;;;21.22;38.51;99434.84;4902065;28;20071;-92
2023/06/14 01:53:06;;;;;;;9.50;6.30;;;;;;;21.25;38.00;99443.34;4910966;28;20383;-92
2023/06/14 01:55:38;;;;;;;;;;;;;;;20.93;38.33;99447.81;4899711;28;20047;-90
2023/06/14 01:58:08;;;;;;;13.00;6.25;;;;;;;21.14;38.04;99441.31;4886380;28;19923;-91
2023/06/14 02:00:35;;;;;;;8.45;5.88;;;;;;;21.22;37.80;99442.94;4885379;28;20106;-91
2023/06/14 02:03:04;;;;;;;6.82;5.85;;;;;;;21.23;37.95;99447.31;4899183;28;20485;-91
2023/06/14 02:05:31;;;;;;;7.00;5.70;;;;;;;21.19;38.04;99441.50;4896618;28;20055;-91
2023/06/14 02:07:58;;;;;;;7.20;5.50;;;;;;;21.20;38.42;99453.13;4879703;28;20052;-90
2023/06/14 02:10:24;;;;;;;9.20;6.07;;;;;;;21.23;37.88;99452.69;4884039;28;20056;-91
2023/06/14 02:12:54;;;;;;;8.63;6.60;;;;;;;21.26;37.99;99441.47;4884959;28;20114;-93
2023/06/14 02:15:21;;;;;;;12.38;6.70;;;;;;;21.25;37.49;99456.84;4890485;28;20051;-92
2023/06/14 02:17:51;;;;;;;9.35;6.15;;;;;;;21.25;37.72;99453.31;4884916;28;20098;-94
2023/06/14 02:20:18;;;;;;;7.60;5.95;;;;;;;21.23;37.89;99452.69;4889605;28;20055;-91
2023/06/14 02:22:45;;;;;;;8.93;6.72;;;;;;;21.29;37.63;99448.31;4897360;28;20102;-91
2023/06/14 02:25:12;;;;;;;12.30;6.65;;;;;;;21.22;37.67;99457.28;4898557;28;20504;-91
2023/06/14 02:27:40;;;;;;;11.50;6.50;;;;;;;21.20;37.26;99453.97;4912917;28;20043;-91
2023/06/14 02:30:10;;;;;;;8.13;6.35;;;;;;;21.14;38.33;99459.38;4901107;28;20502;-90
2023/06/14 02:32:36;;;;;;;8.27;5.63;;;;;;;21.13;38.87;99458.56;4876995;28;20270;-90
2023/06/14 02:35:05;;;;;;;8.35;6.10;;;;;;;21.18;37.97;99464.13;4901243;28;20048;-92
2023/06/14 02:37:31;;;;;;;12.10;6.50;;;;;;;21.14;37.78;99459.38;4886446;28;20064;-91
2023/06/14 02:39:58;;;;;;;10.93;5.95;;;;;;;21.18;37.68;99460.63;4890280;28;20055;-93
2023/06/14 02:42:25;;;;;;;7.88;6.63;;;;;;;21.03;37.68;99455.47;4892038;28;20106;-91
2023/06/14 02:44:52;;;;;;;7.00;6.05;;;;;;;20.92;37.76;99456.97;4891166;28;20052;-91
2023/06/14 02:47:20;;;;;;;8.10;6.25;;;;;;;21.09;37.48;99459.19;4889899;28;20055;-91
2023/06/14 02:49:47;;;;;;;7.60;6.28;;;;;;;21.07;37.61;99451.31;4902352;28;20482;-92
2023/06/14 02:52:15;;;;;;;12.23;6.38;;;;;;;21.08;37.71;99458.38;4888607;28;20048;-91
2023/06/14 02:54:42;;;;;;;7.28;5.85;;;;;;;21.08;37.76;99461.06;4905756;28;20431;-92
2023/06/14 02:57:10;;;;;;;8.70;5.90;;;;;;;21.09;38.02;99457.34;4918522;28;20052;-92
2023/06/14 02:59:38;;;;;;;6.88;5.70;;;;;;;21.11;37.68;99451.72;4898287;28;20404;-91
2023/06/14 03:02:05;;;;;;;6.80;5.75;;;;;;;21.12;38.13;99458.78;4885688;28;20051;-93
2023/06/14 03:04:37;;;;;;;12.13;6.05;;;;;;;21.06;38.30;99463.13;4896243;28;20105;-91
2023/06/14 03:07:09;;;;;;;9.07;5.75;;;;;;;21.02;38.66;99459.22;4904866;28;20053;-90
2023/06/14 03:09:38;;;;;;;10.25;6.22;;;;;;;20.96;38.78;99470.84;4888209;28;20051;-85
2023/06/14 03:12:09;;;;;;;13.68;6.68;;;;;;;20.98;39.13;99471.47;4902642;28;20059;-86
2023/06/14 03:14:36;;;;;;;10.52;6.10;;;;;;;20.98;38.29;99464.19;4906634;28;20040;-85
2023/06/14 03:17:04;;;;;;;9.23;6.47;;;;;;;21.00;38.07;99470.22;4889415;28;20048;-85
2023/06/14 03:19:34;;;;;;;10.30;6.47;;;;;;;21.00;38.18;99474.81;4901265;28;20040;-86
2023/06/14 03:22:02;;;;;;;7.47;6.03;;;;;;;20.99;38.41;99478.56;4883801;28;20062;-86
2023/06/14 03:24:36;;;;;;;9.50;6.28;;;;;;;21.00;37.99;99474.81;4904708;28;20047;-86
2023/06/14 03:27:09;;;;;;;10.82;6.13;;;;;;;20.94;38.22;99481.88;4919788;28;20048;-86
2023/06/14 03:29:40;;;;;;;13.77;6.32;;;;;;;20.97;37.99;99481.44;4907225;28;20048;-86
2023/06/14 03:32:08;;;;;;;8.95;6.05;;;;;;;20.97;38.57;99483.34;4890790;28;20064;-86
2023/06/14 03:34:42;;;;;;;10.60;6.68;;;;;;;20.94;38.61;99489.13;4910923;28;20036;-86
2023/06/14 03:37:15;;;;;;;9.23;6.25;;;;;;;20.90;38.44;99491.44;4923397;28;20075;-86
2023/06/14 03:39:46;;;;;;;10.32;6.07;;;;;;;20.88;38.34;99485.41;4909406;28;20541;-85
2023/06/14 03:42:16;;;;;;;6.82;5.28;;;;;;;20.94;38.41;99494.53;4909350;28;20044;-84
2023/06/14 03:44:44;;;;;;;9.98;5.80;;;;;;;20.97;38.43;99488.72;4914640;28;20075;-87
2023/06/14 03:47:12;;;;;;;11.13;6.57;;;;;;;21.08;38.55;99489.94;4892406;28;20056;-86
2023/06/14 03:49:38;;;;;;;7.18;5.93;;;;;;;21.11;38.40;99498.44;4901025;28;20070;-86
2023/06/14 03:52:06;;;;;;;9.95;6.38;;;;;;;21.20;38.25;99509.84;4897773;28;20040;-87
2023/06/14 03:54:35;;;;;;;8.55;6.60;;;;;;;21.29;38.63;99510.41;4903533;28;20051;-86
2023/06/14 03:57:05;;;;;;;9.50;6.70;;;;;;;21.57;38.63;99521.75;4917367;28;20058;-83
2023/06/14 03:59:33;;;;;;;8.82;6.20;;;;;;;22.08;38.25;99512.75;4887485;28;20052;-86
2023/06/14 04:02:00;;;;;;;7.70;6.32;;;;;;;22.71;37.40;99519.94;4916994;28;20060;-86
2023/06/14 04:04:29;;;;;;;12.20;6.93;;;;;;;23.21;36.97;99518.25;4912683;28;20052;-86
2023/06/14 04:07:00;;;;;;;17.52;8.80;;;;;;;23.32;35.21;99517.47;4916311;28;20127;-85
2023/06/14 04:09:27;;;;;;;12.75;6.93;;;;;;;23.15;35.49;99519.94;4898686;28;20607;-87
2023/06/14 04:11:54;;;;;;;8.90;6.20;;;;;;;23.04;36.04;99518.00;4907141;28;20465;-87
2023/06/14 04:14:24;;;;;;;8.27;6.57;;;;;;;22.77;37.12;99523.66;4890362;28;20056;-86
2023/06/14 04:16:51;;;;;;;7.28;6.05;;;;;;;22.73;37.10;99528.69;4903592;28;20421;-87
2023/06/14 04:19:19;;;;;;;10.45;6.55;;;;;;;22.68;36.85;99527.69;4906744;28;20063;-86
2023/06/14 04:21:49;;;;;;;8.82;6.07;;;;;;;22.52;37.59;99545.31;4895812;28;20476;-86
2023/06/14 04:24:19;;;;;;;9.05;6.65;;;;;;;22.39;37.64;99545.41;4888334;28;20052;-88
2023/06/14 04:26:49;;;;;;;10.18;6.55;;;;;;;22.37;38.50;99542.13;4898101;28;20527;-86
2023/06/14 04:29:19;;;;;;;8.40;6.55;;;;;;;22.33;38.11;99547.94;4904384;28;22048;-87
2023/06/14 04:31:54;;;;;;;9.75;7.10;;;;;;;22.30;37.84;99553.78;4901970;28;20040;-87
2023/06/14 04:34:33;;;;;;;9.00;6.15;;;;;;;22.28;37.29;99553.19;4896111;28;20048;-86
2023/06/14 04:37:01;;;;;;;10.50;6.25;;;;;;;22.35;37.12;99557.75;4913811;28;20050;-86
2023/06/14 04:39:35;;;;;;;8.77;6.60;;;;;;;22.31;37.27;99555.47;4925707;28;20411;-87
2023/06/14 04:42:03;;;;;;;8.95;6.63;;;;;;;22.31;37.17;99562.75;4884870;28;20054;-87
2023/06/14 04:44:31;;;;;;;11.77;6.72;;;;;;;22.27;37.39;99562.34;4911083;28;20087;-86
2023/06/14 04:47:01;;;;;;;7.95;6.50;;;;;;;22.21;37.58;99556.97;4914611;28;25179;-86
2023/06/14 04:49:32;;;;;;;11.02;6.70;;;;;;;22.21;37.21;99557.84;4917585;28;20448;-86
2023/06/14 04:52:01;;;;;;;9.15;6.20;;;;;;;22.14;37.34;99556.19;4915256;28;20052;-86
2023/06/14 04:54:36;;;;;;;11.73;6.53;;;;;;;22.00;37.38;99555.44;4889114;28;20098;-87
2023/06/14 04:57:07;;;;;;;9.73;6.32;;;;;;;21.91;37.87;99565.69;4911144;28;20056;-87
2023/06/14 04:59:35;;;;;;;10.80;6.80;;;;;;;21.87;37.89;99562.56;4911423;28;20520;-86
2023/06/14 05:02:02;;;;;;;11.35;6.63;;;;;;;21.75;38.23;99561.56;4914786;28;20746;-86
2023/06/14 05:04:29;;;;;;;9.93;5.97;;;;;;;21.79;38.40;99568.22;4896602;28;20044;-86
2023/06/14 05:06:58;;;;;;;8.85;6.47;;;;;;;21.75;38.43;99574.25;4914532;28;20048;-86
2023/06/14 05:09:28;;;;;;;12.70;6.90;;;;;;;21.71;38.60;99573.06;4888059;28;20047;-86
2023/06/14 05:11:55;;;;;;;14.25;7.55;;;;;;;21.61;38.62;99565.41;4905342;28;20055;-87
2023/06/14 05:14:22;;;;;;;9.73;6.70;;;;;;;21.53;38.53;99571.88;4879216;28;20052;-86
2023/06/14 05:16:51;;;;;;;10.43;6.22;;;;;;;21.44;39.25;99570.44;4914343;28;20079;-86
2023/06/14 05:19:18;;;;;;;9.43;6.88;;;;;;;21.38;38.56;99571.28;4913045;28;20052;-86
2023/06/14 05:21:47;;;;;;;8.70;6.60;;;;;;;21.38;38.70;99569.44;4917901;28;20067;-86
2023/06/14 05:24:19;;;;;;;11.88;6.43;;;;;;;21.33;39.33;99580.00;4917237;28;20048;-86
2023/06/14 05:26:46;;;;;;;13.68;6.63;;;;;;;21.20;39.33;99586.28;4896639;28;20056;-86
2023/06/14 05:29:13;;;;;;;9.48;6.20;;;;;;;21.21;39.62;99577.13;4900566;28;20126;-86
2023/06/14 05:31:40;;;;;;;10.80;6.45;;;;;;;21.16;39.76;99581.50;4900475;28;20036;-86
2023/06/14 05:34:07;;;;;;;7.70;5.80;;;;;;;21.21;39.44;99584.41;4902178;28;20170;-86
2023/06/14 05:36:36;;;;;;;8.82;6.80;;;;;;;21.22;39.83;99586.06;4899055;28;20063;-87
2023/06/14 05:39:04;;;;;;;13.48;6.35;;;;;;;21.27;39.43;99586.28;4898164;28;20586;-87
2023/06/14 05:41:31;;;;;;;9.93;6.85;;;;;;;21.40;39.90;99583.56;4904925;28;20141;-86
2023/06/14 05:43:59;;;;;;;13.73;6.22;;;;;;;21.33;40.11;99598.09;4887581;28;20048;-86
2023/06/14 05:46:26;;;;;;;12.65;6.40;;;;;;;21.32;39.94;99599.09;4903204;28;20127;-86
2023/06/14 05:48:54;;;;;;;11.02;6.55;;;;;;;21.31;40.31;99597.47;4905220;28;20044;-86
2023/06/14 05:51:24;;;;;;;8.25;6.32;;;;;;;21.42;40.02;99603.09;4883331;28;20055;-86
2023/06/14 05:53:52;;;;;;;10.52;6.57;;;;;;;21.32;39.66;99597.25;4909261;28;20537;-86
2023/06/14 05:56:19;;;;;;;22.63;7.63;;;;;;;21.41;40.21;99609.50;4886031;28;20067;-86
2023/06/14 05:58:46;;;;;;;12.20;6.75;;;;;;;21.37;39.62;99605.56;4897997;28;20047;-87
2023/06/14 06:01:14;;;;;;;9.57;6.32;;;;;;;21.28;39.98;99606.00;4912076;28;20048;-87
2023/06/14 06:03:41;;;;;;;11.25;6.70;;;;;;;21.32;40.21;99607.22;4872478;28;20044;-87
2023/06/14 06:06:08;;;;;;;8.55;6.50;;;;;;;21.38;40.10;99614.50;4894161;28;20557;-87
2023/06/14 06:08:35;;;;;;;8.80;6.88;;;;;;;21.52;40.21;99612.59;4911871;28;20059;-87
2023/06/14 06:11:02;;;;;;;9.32;6.40;;;;;;;21.54;40.10;99615.94;4888990;28;20120;-87
2023/06/14 06:13:29;;;;;;;8.73;6.43;;;;;;;21.45;40.04;99613.47;4888003;28;20495;-87
2023/06/14 06:15:56;;;;;;;8.23;6.50;;;;;;;21.40;39.97;99610.56;4902795;28;20047;-86
2023/06/14 06:18:23;;;;;;;20.08;6.88;;;;;;;21.50;40.32;99617.38;4903057;28;20052;-87
2023/06/14 06:20:50;;;;;;;8.05;6.20;;;;;;;21.51;39.89;99616.34;4882145;28;20087;-87
2023/06/14 06:23:17;;;;;;;11.55;5.88;;;;;;;21.18;40.09;99620.75;4891679;28;20057;-86
2023/06/14 06:25:43;;;;;;;13.52;6.50;;;;;;;21.11;40.31;99628.03;4892581;28;20055;-87
2023/06/14 06:28:10;;;;;;;10.07;6.10;;;;;;;21.17;40.01;99629.91;4887703;28;20068;-87
2023/06/14 06:30:39;;;;;;;9.35;6.80;;;;;;;21.29;40.14;99630.06;4887119;28;20666;-87
2023/06/14 06:33:06;;;;;;;9.82;6.50;;;;;;;21.31;40.17;99630.69;4901204;28;20064;-85
2023/06/14 06:35:33;;;;;;;9.27;5.75;;;;;;;21.30;40.09;99634.44;4897246;28;20419;-87
2023/06/14 06:38:02;;;;;;;13.57;6.07;;;;;;;21.23;40.11;99642.56;4909991;28;20130;-87
2023/06/14 06:40:29;;;;;;;7.80;5.57;;;;;;;21.30;40.08;99628.22;4898878;28;21122;-87
2023/06/14 06:42:56;;;;;;;13.90;6.38;;;;;;;21.33;39.96;99630.50;4900121;28;20511;-86
2023/06/14 06:45:26;;;;;;;9.90;5.82;;;;;;;21.38;39.96;99628.00;4891227;28;20804;-87
2023/06/14 06:47:53;;;;;;;14.70;6.35;;;;;;;21.44;40.41;99637.97;4890332;28;20056;-86
2023/06/14 06:50:20;;;;;;;7.85;6.10;;;;;;;21.41;40.03;99639.22;4885571;28;20095;-87
2023/06/14 06:52:47;;;;;;;9.98;5.75;;;;;;;21.40;39.68;99637.56;4871535;28;20055;-87
2023/06/14 06:55:14;;;;;;;8.52;6.30;;;;;;;21.42;40.24;99637.34;4879793;28;20155;-87
2023/06/14 06:57:41;;;;;;;13.82;6.68;;;;;;;21.41;40.29;99646.50;4875539;28;20055;-86
2023/06/14 07:00:09;;;;;;;10.07;5.97;;;;;;;21.51;39.92;99656.88;4885728;28;20467;-86
2023/06/14 07:02:36;;;;;;;7.93;6.32;;;;;;;21.42;40.14;99651.72;4894107;28;20048;-86
2023/06/14 07:05:04;;;;;;;9.65;5.88;;;;;;;21.36;40.03;99652.50;4898196;28;20079;-87
2023/06/14 07:07:31;;;;;;;11.35;5.90;;;;;;;21.44;40.00;99652.31;4907596;28;20041;-87
2023/06/14 07:10:00;;;;;;;9.65;6.00;;;;;;;21.49;40.32;99651.69;4899406;28;20048;-87
2023/06/14 07:12:29;;;;;;;10.55;6.50;;;;;;;21.45;39.77;99648.59;4900046;28;20056;-86
2023/06/14 07:14:57;;;;;;;13.52;5.57;;;;;;;21.36;40.31;99655.19;4861436;28;20131;-87
2023/06/14 07:17:24;;;;;;;9.60;6.50;;;;;;;21.36;39.76;99647.09;4918323;28;20385;-87
2023/06/14 07:19:51;;;;;;;10.68;6.22;;;;;;;21.41;39.90;99651.91;4901989;28;20458;-86
2023/06/14 07:22:18;;;;;;;10.85;6.07;;;;;;;21.38;39.82;99652.31;4901628;28;20990;-86
2023/06/14 07:24:45;;;;;;;9.10;5.57;;;;;;;21.49;40.16;99651.69;4924380;28;20055;-87
2023/06/14 07:27:13;;;;;;;7.60;5.88;;;;;;;21.59;39.88;99656.66;4891455;28;20160;-86
2023/06/14 07:29:41;;;;;;;10.32;6.32;;;;;;;21.62;39.84;99653.50;4883834;28;20075;-87
2023/06/14 07:32:08;;;;;;;10.15;5.82;;;;;;;21.67;40.04;99657.22;4887842;28;20052;-86
2023/06/14 07:34:35;;;;;;;9.30;6.88;;;;;;;21.71;40.00;99657.66;4910273;28;20076;-87
2023/06/14 07:37:02;;;;;;;7.97;6.05;;;;;;;21.67;39.60;99657.22;4917961;28;20094;-86
2023/06/14 07:39:29;;;;;;;11.02;6.03;;;;;;;21.62;40.07;99661.63;4914507;28;20040;-86
2023/06/14 07:41:56;;;;;;;8.65;5.28;;;;;;;21.68;40.27;99669.72;4908731;28;20044;-87
2023/06/14 07:44:23;;;;;;;13.52;6.72;;;;;;;21.58;39.80;99663.09;4905770;28;20056;-86
2023/06/14 07:46:52;;;;;;;8.65;6.05;;;;;;;21.63;40.20;99669.53;4901057;28;20056;-87
2023/06/14 07:49:19;;;;;;;10.68;6.65;;;;;;;21.55;40.58;99664.34;4902893;28;20040;-87
2023/06/14 07:51:47;;;;;;;7.20;5.55;;;;;;;21.39;40.32;99668.31;4903156;28;20380;-87
2023/06/14 07:54:14;;;;;;;10.13;6.50;;;;;;;21.23;40.43;99679.53;4883364;28;20055;-86
2023/06/14 07:56:41;;;;;;;11.90;5.85;;;;;;;21.32;40.63;99674.72;4890857;28;20142;-86
2023/06/14 07:59:10;;;;;;;10.57;5.70;;;;;;;21.40;40.73;99674.56;4913770;28;20055;-86
2023/06/14 08:01:37;;;;;;;10.80;6.55;;;;;;;21.25;40.56;99659.38;4887688;28;20725;-86
2023/06/14 08:04:04;;;;;;;11.73;6.03;;;;;;;21.37;40.67;99659.59;4911810;28;20892;-86
2023/06/14 08:06:31;;;;;;;8.73;6.10;;;;;;;;;;4910086;28;20365;-86
2023/06/14 08:08:58;;;;;;;9.57;5.97;;;;;;;21.49;40.31;99664.34;4905035;28;20052;-86
2023/06/14 08:11:25;;;;;;;13.60;6.70;;;;;;;21.53;40.19;99657.50;4900568;28;20522;-86
2023/06/14 08:13:52;;;;;;;9.48;6.20;;;;;;;21.42;40.33;99662.50;4897223;28;20118;-86
2023/06/14 08:16:19;;;;;;;13.52;6.30;;;;;;;21.50;40.20;99672.25;4901905;28;20145;-87
2023/06/14 08:18:46;;;;;;;7.53;5.90;;;;;;;21.50;40.38;99658.75;4916170;28;20060;-87
2023/06/14 08:21:14;;;;;;;9.65;6.50;;;;;;;21.60;40.45;99655.59;4899172;28;20052;-85
2023/06/14 08:23:42;;;;;;;12.25;6.20;;;;;;;21.62;40.41;99654.34;4914403;28;20044;-86
2023/06/14 08:26:10;;;;;;;7.43;5.82;;;;;;;21.65;40.76;99655.78;4888623;28;20066;-86
2023/06/14 08:28:37;;;;;;;15.15;6.13;;;;;;;21.65;40.47;99650.38;4889624;28;20539;-87
2023/06/14 08:31:04;;;;;;;8.70;6.10;;;;;;;21.66;40.59;99657.47;4910123;28;20052;-87
2023/06/14 08:33:34;;;;;;;10.93;6.65;;;;;;;21.63;40.19;99657.91;4914567;28;20447;-86
2023/06/14 08:36:01;;;;;;;10.77;6.22;;;;;;;21.52;39.91;99659.34;4908124;28;20044;-87
2023/06/14 08:38:28;;;;;;;8.98;7.05;;;;;;;21.59;40.68;99668.28;4911641;28;20048;-86
2023/06/14 08:40:57;;;;;;;10.52;6.43;;;;;;;21.60;40.06;99656.44;4911162;28;20056;-86
2023/06/14 08:43:24;;;;;;;7.38;5.72;;;;;;;21.76;40.05;99659.72;4894952;28;20047;-86
2023/06/14 08:45:54;;;;;;;10.60;6.25;;;;;;;21.65;40.49;99661.19;4884726;28;20048;-86
2023/06/14 08:48:22;;;;;;;9.90;6.40;;;;;;;21.70;40.05;99661.38;4901689;28;20044;-86
2023/06/14 08:50:49;;;;;;;11.15;5.80;;;;;;;21.70;40.10;99655.97;4900575;28;20874;-86
2023/06/14 08:53:19;;;;;;;11.18;5.72;;;;;;;21.80;40.04;99650.94;4913256;28;20109;-86
2023/06/14 08:55:47;;;;;;;11.73;5.82;;;;;;;21.94;40.13;99664.44;4910224;28;20056;-86
2023/06/14 08:58:14;;;;;;;9.77;5.68;;;;;;;21.88;39.94;99660.72;4898501;28;20052;-86
2023/06/14 09:00:42;;;;;;;8.48;5.57;;;;;;;21.93;40.42;99654.66;4898231;28;20060;-87
2023/06/14 09:03:13;;;;;;;12.95;5.80;;;;;;;21.98;39.84;99658.41;4911300;28;20137;-86
2023/06/14 09:05:40;;;;;;;11.43;6.70;;;;;;;22.04;39.75;99660.22;4881680;28;20506;-86
2023/06/14 09:08:07;;;;;;;10.40;5.68;;;;;;;22.05;39.68;99655.66;4910759;28;20052;-86
2023/06/14 09:10:36;;;;;;;14.38;6.25;;;;;;;22.05;39.78;99659.19;4915034;28;20043;-87
2023/06/14 09:13:04;;;;;;;12.60;5.63;;;;;;;21.87;39.16;99662.56;4915022;28;20121;-85
2023/06/14 09:15:32;;;;;;;12.95;6.05;;;;;;;21.87;39.46;99667.97;4892613;28;20055;-86
2023/06/14 09:18:01;;;;;;;7.85;5.88;;;;;;;21.94;39.42;99659.03;4886569;28;20059;-86
2023/06/14 09:20:30;;;;;;;8.20;6.45;;;;;;;21.96;39.76;99665.88;4893388;28;20052;-86
2023/06/14 09:22:57;;;;;;;6.13;5.43;;;;;;;21.98;39.98;99662.94;4899402;28;20070;-86
2023/06/14 09:25:24;;;;;;;9.65;6.00;;;;;;;22.06;39.80;99663.56;4924375;28;20098;-86
2023/06/14 09:28:09;;;;;;;10.53;5.33;;;;;;;22.06;38.83;99662.72;4926886;28;20070;-85
2023/06/14 09:30:39;;;;;;;10.25;5.20;;;;;;;22.15;38.97;99672.25;4926511;28;20448;-86
2023/06/14 09:33:06;;;;;;;12.98;5.93;;;;;;;22.19;38.84;99670.81;4902369;28;20063;-85
2023/06/14 09:35:33;;;;;;;10.20;5.63;;;;;;;22.23;38.35;99666.59;4895846;28;20059;-87
2023/06/14 09:38:00;;;;;;;11.10;5.90;;;;;;;22.18;38.70;99671.81;4911978;28;20044;-86
2023/06/14 09:40:27;;;;;;;8.48;6.28;;;;;;;22.11;38.45;99669.16;4885691;28;20067;-86
2023/06/14 09:42:55;;;;;;;6.88;5.60;;;;;;;22.15;38.15;99669.53;4891863;28;20036;-87
2023/06/14 09:45:22;;;;;;;9.27;6.10;;;;;;;22.18;37.85;99663.69;4896968;28;20055;-86
2023/06/14 09:47:49;;;;;;;10.23;6.40;;;;;;;22.25;38.39;99669.09;4913436;28;20044;-87
2023/06/14 09:50:33;;;;;;;7.60;5.15;;;;;;;22.27;37.58;99667.84;4902903;28;20458;-85
2023/06/14 09:53:06;;;;;;;9.07;5.72;;;;;;;22.26;37.85;99677.03;4872961;28;20446;-86
2023/06/14 09:55:36;;;;;;;11.10;5.15;;;;;;;22.37;37.49;99670.09;4912175;28;20045;-86
2023/06/14 09:58:07;;;;;;;11.48;5.07;;;;;;;22.41;37.50;99665.06;4905543;28;20051;-87
2023/06/14 10:00:36;;;;;;;9.90;5.30;;;;;;;22.47;37.34;99656.91;4901709;28;20052;-87
2023/06/14 10:03:11;;;;;;;8.25;5.50;;;;;;;22.52;37.03;99667.91;4910691;28;20448;-86
2023/06/14 10:05:40;;;;;;;8.30;5.47;;;;;;;22.56;36.65;99676.41;4906409;28;20055;-86
2023/06/14 10:08:12;;;;;;;8.98;5.47;;;;;;;22.51;37.25;99665.41;4876006;28;20448;-86
2023/06/14 10:10:40;;;;;;;7.80;5.63;;;;;;;22.49;37.32;99660.25;4893295;28;20074;-86
2023/06/14 10:13:07;;;;;;;5.18;4.53;;;;;;;22.51;37.40;99674.34;4886428;28;20060;-85
2023/06/14 10:16:36;;;;;;;7.85;4.75;;;;;;;22.29;35.16;99665.75;4891507;28;20047;-86
2023/06/14 10:19:08;;;;;;;7.35;4.40;;;;;;;22.43;34.96;99652.97;4918159;28;20048;-86
2023/06/14 10:21:50;;;;;;;9.95;5.30;;;;;;;22.44;35.75;99667.31;4875813;28;20044;-86
2023/06/14 10:24:18;;;;;;;6.60;5.35;;;;;;;22.58;35.86;99665.38;4902668;28;20117;-86
2023/06/14 10:26:57;;;;;;;8.45;4.72;;;;;;;22.54;35.18;99659.56;4910421;28;20073;-86
2023/06/14 10:29:26;;;;;;;9.38;5.15;;;;;;;22.66;35.45;99667.81;4890001;28;20513;-86
2023/06/14 10:31:57;;;;;;;12.02;5.30;;;;;;;22.66;35.60;99674.06;4883300;28;20056;-86
2023/06/14 10:34:24;;;;;;;9.18;5.10;;;;;;;22.68;35.45;99663.03;4921542;28;20106;-87
2023/06/14 10:37:05;;;;;;;10.27;5.55;;;;;;;22.69;36.06;99668.19;4905565;28;20036;-86
2023/06/14 10:39:37;;;;;;;7.82;4.85;;;;;;;22.85;35.99;99655.22;4867575;28;20392;-86
2023/06/14 10:42:06;;;;;;;6.05;5.15;;;;;;;22.85;35.61;99661.44;4877442;28;21127;-87
2023/06/14 10:44:39;;;;;;;6.88;5.15;;;;;;;22.75;35.97;99658.41;4913720;28;20075;-87
2023/06/14 10:47:35;;;;;;;7.57;5.20;;;;;;;22.66;36.33;99663.22;4906059;28;20071;-86
2023/06/14 10:50:05;;;;;;;8.30;5.30;;;;;;;22.80;35.70;99677.53;4882121;28;20125;-86
2023/06/14 10:52:38;;;;;;;7.57;5.05;;;;;;;22.74;34.73;99649.47;4911341;28;20051;-86
2023/06/14 10:55:09;;;;;;;6.68;4.95;;;;;;;22.87;35.17;99656.66;4922448;28;20063;-86
2023/06/14 10:57:55;;;;;;;8.90;5.07;;;;;;;22.81;35.30;99662.09;4891403;28;20495;-86
2023/06/14 11:00:26;;;;;;;8.23;5.30;;;;;;;22.80;35.51;99655.88;4890649;28;20139;-86
2023/06/14 11:03:21;;;;;;;9.35;5.47;;;;;;;22.69;35.44;99651.13;4879914;28;20517;-86
2023/06/14 11:05:56;;;;;;;10.73;5.95;;;;;;;22.78;34.91;99654.44;4925464;28;20063;-86
2023/06/14 11:08:49;;;;;;;7.15;5.13;;;;;;;22.74;34.91;99638.63;4889553;28;20668;-86
2023/06/14 11:11:16;;;;;;;11.70;5.20;;;;;;;22.77;35.80;99648.19;4930640;28;20131;-86
2023/06/14 11:13:46;;;;;;;10.25;5.70;;;;;;;22.80;35.22;99652.34;4901520;28;20058;-86
2023/06/14 11:16:15;;;;;;;8.23;5.90;;;;;;;22.80;35.79;99649.63;4899969;28;20071;-86
2023/06/14 11:18:42;;;;;;;7.15;5.15;;;;;;;22.85;35.68;99649.78;4920649;28;20503;-86
2023/06/14 11:21:09;;;;;;;14.88;6.13;;;;;;;22.89;36.00;99649.09;4891191;28;20051;-86
2023/06/14 11:23:36;;;;;;;8.77;5.95;;;;;;;23.05;35.46;99649.63;4890952;28;20056;-86
2023/06/14 11:26:06;;;;;;;12.15;6.05;;;;;;;23.04;35.10;99648.00;4916577;28;20058;-85
2023/06/14 11:28:40;;;;;;;7.13;5.03;;;;;;;23.02;34.67;99639.25;4898252;28;20138;-86
2023/06/14 11:31:07;;;;;;;7.28;5.70;;;;;;;23.19;34.90;99637.63;4909282;28;20054;-85
2023/06/14 11:33:34;;;;;;;9.73;5.70;;;;;;;23.26;35.04;99645.72;4900428;28;20056;-86
2023/06/14 11:36:04;;;;;;;9.15;5.63;;;;;;;23.32;34.92;99637.50;4900309;28;20118;-86
2023/06/14 11:38:35;;;;;;;7.95;5.88;;;;;;;23.34;35.02;99646.25;4895229;28;20059;-86
2023/06/14 11:41:02;;;;;;;9.32;5.47;;;;;;;23.37;35.53;99636.84;4905481;28;20502;-87